< Cyclone 197906 1979 Season Cyclone 197908 >
Cyclone 197907 (IVAN)
General InformationTrack Information on Google MapsList of All Images || ResourceGoogle EarthGE AnimationAtom FeedGeoJSON
Detalied Best Track (Time Zone = UTC)
Year Month Day Hour Lat. Long. Pressure (hPa) Wind (kt) Class Image Chart
1979 3 16 00 -12.5 91.9 998 0 0 Image --
1979 3 16 06 -13.2 91.4 997 0 0 Image --
1979 3 16 12 -13.7 91.2 996 0 0 Image --
1979 3 16 18 -14.3 91.1 995 0 0 Image --
1979 3 17 00 -14.9 91.0 994 0 0 Image --
1979 3 17 06 -15.6 90.8 993 0 0 Image --
1979 3 17 12 -16.4 90.2 992 0 0 Image --
1979 3 17 18 -16.9 89.7 991 0 0 Image --
1979 3 18 00 -17.2 89.0 990 0 0 Image --
1979 3 18 06 -17.5 88.1 989 0 0 Image --
1979 3 18 12 -18.1 87.3 988 0 0 Image --
1979 3 18 18 -18.7 87.3 988 0 0 Image --
1979 3 19 00 -19.5 86.5 989 0 0 Image --
1979 3 19 06 -20.3 86.1 990 0 0 Image --
1979 3 19 12 -21.0 85.6 991 0 0 Image --
1979 3 19 18 -21.5 85.1 991 0 0 Image --
1979 3 20 00 -22.1 84.2 992 0 0 Image --
1979 3 20 06 -22.5 83.1 993 0 0 Image --
1979 3 20 12 -22.9 82.1 994 0 0 Image --
1979 3 20 18 -23.4 81.4 995 0 0 Image --
1979 3 21 00 -24.0 80.7 996 0 0 Image --
< Cyclone 197906 1979 Season Cyclone 197908 >

Help